Time;durP1;ratioP1;P1;durP2;ratioP2;P2;SDS_P1;SDS_P2;PMS_P1;PMS_P2;Temp;Humidity;BMP_temperature;BMP_pressure;BME280_temperature;BME280_humidity;BME280_pressure;Samples;Min_cycle;Max_cycle;Signal;HPM_P1;HPM_P2
2021/08/07 00:00:14;;;;;;;6.57;1.42;;;;;;;18.70;86.56;95586.22;5059514;28;20211;-69
2021/08/07 00:02:40;;;;;;;3.75;2.10;;;;;;;18.68;86.48;95584.84;5058469;28;20224;-69
2021/08/07 00:05:08;;;;;;;4.60;1.60;;;;;;;18.70;85.84;95594.22;5060239;28;20208;-69
2021/08/07 00:07:34;;;;;;;2.85;1.60;;;;;;;18.85;85.36;95588.31;5058328;28;20224;-69
2021/08/07 00:10:02;;;;;;;4.78;1.60;;;;;;;18.74;84.49;95590.00;5058909;28;20208;-68
2021/08/07 00:12:28;;;;;;;4.55;1.63;;;;;;;18.76;84.51;95593.25;5058657;28;20228;-69
2021/08/07 00:14:55;;;;;;;2.55;1.65;;;;;;;18.74;84.83;95584.69;5058925;28;20732;-69
2021/08/07 00:17:22;;;;;;;5.38;1.90;;;;;;;18.89;85.16;95576.09;5057811;28;20211;-68
2021/08/07 00:19:49;;;;;;;5.20;1.58;;;;;;;18.82;86.74;95560.25;5058254;28;20211;-69
2021/08/07 00:22:16;;;;;;;4.30;1.73;;;;;;;18.75;87.08;95548.94;5058655;28;20220;-69
2021/08/07 00:24:42;;;;;;;9.88;1.73;;;;;;;18.53;87.17;95544.56;5057943;28;20618;-69
2021/08/07 00:27:09;;;;;;;5.25;1.63;;;;;;;18.51;87.27;95558.13;5054881;28;20216;-68
2021/08/07 00:29:36;;;;;;;4.18;1.48;;;;;;;18.48;86.69;95552.47;5057046;28;20201;-68
2021/08/07 00:32:03;;;;;;;6.45;2.75;;;;;;;18.52;87.24;95549.09;5058473;28;20220;-68
2021/08/07 00:34:31;;;;;;;7.05;1.80;;;;;;;18.46;87.86;95551.91;5058667;28;20212;-69
2021/08/07 00:36:57;;;;;;;6.25;1.75;;;;;;;18.50;86.86;95555.72;5057909;28;20200;-68
2021/08/07 00:39:24;;;;;;;7.20;1.90;;;;;;;18.55;88.08;95545.13;5058105;28;20200;-69
2021/08/07 00:41:50;;;;;;;3.28;1.80;;;;;;;18.40;87.31;95540.34;5058509;28;20235;-68
2021/08/07 00:44:17;;;;;;;2.38;1.70;;;;;;;18.46;86.67;95528.69;5058122;28;20691;-68
2021/08/07 00:46:43;;;;;;;2.42;1.77;;;;;;;18.27;88.17;95541.72;5056887;28;20208;-69
2021/08/07 00:49:10;;;;;;;5.75;1.88;;;;;;;18.15;88.44;95540.91;5057442;28;20239;-69
2021/08/07 00:51:38;;;;;;;6.00;1.77;;;;;;;18.41;87.87;95552.63;5057977;28;20200;-68
2021/08/07 00:54:04;;;;;;;4.25;1.75;;;;;;;18.27;87.69;95553.19;5057844;28;21196;-68
2021/08/07 00:56:31;;;;;;;5.60;1.92;;;;;;;18.03;88.21;95551.63;5057245;28;20692;-69
2021/08/07 00:58:57;;;;;;;3.30;1.60;;;;;;;17.77;89.54;95546.09;5057733;28;20192;-69
2021/08/07 01:01:28;;;;;;;3.00;1.70;;;;;;;18.03;89.55;95543.66;5057544;28;21119;-68
2021/08/07 01:03:56;;;;;;;4.63;1.88;;;;;;;18.21;88.52;95534.66;5057479;28;20205;-68
2021/08/07 01:06:31;;;;;;;2.20;1.88;;;;;;;18.45;88.85;95539.63;5056826;28;20200;-68
2021/08/07 01:09:07;;;;;;;6.65;1.70;;;;;;;18.62;86.55;95538.59;5058307;28;20247;-69
2021/08/07 01:11:41;;;;;;;4.07;1.50;;;;;;;18.72;85.84;95529.91;5058009;28;20266;-68
2021/08/07 01:14:10;;;;;;;7.40;1.80;;;;;;;18.62;86.16;95533.25;5057636;28;20200;-68
2021/08/07 01:16:40;;;;;;;3.88;1.58;;;;;;;18.60;86.29;95530.00;5056960;28;21131;-69
2021/08/07 01:19:14;;;;;;;3.97;1.90;;;;;;;18.75;86.01;95532.91;5059142;28;20196;-68
2021/08/07 01:21:45;;;;;;;8.82;1.83;;;;;;;18.50;87.16;95529.03;5057342;28;20228;-68
2021/08/07 01:24:16;;;;;;;4.10;1.58;;;;;;;18.58;86.23;95521.44;5057383;28;20219;-68
2021/08/07 01:26:49;;;;;;;4.55;1.90;;;;;;;18.49;86.71;95528.22;5057248;28;20722;-68
2021/08/07 01:29:18;;;;;;;4.20;1.73;;;;;;;18.34;88.16;95533.31;5054332;28;20263;-68
2021/08/07 01:31:46;;;;;;;3.60;1.70;;;;;;;18.27;88.42;95526.50;5057673;28;20228;-69
2021/08/07 01:34:13;;;;;;;5.95;1.83;;;;;;;18.19;87.79;95534.09;5057621;28;20200;-69
2021/08/07 01:36:40;;;;;;;4.05;1.80;;;;;;;18.13;88.13;95532.38;5056685;28;20200;-69
2021/08/07 01:39:08;;;;;;;2.38;1.60;;;;;;;18.18;87.29;95527.16;5057134;28;20231;-69
2021/08/07 01:41:34;;;;;;;7.65;1.50;;;;;;;18.14;87.41;95520.63;5056918;28;20200;-69
2021/08/07 01:44:01;;;;;;;4.60;1.42;;;;;;;18.14;87.37;95517.97;5057122;28;20205;-69
2021/08/07 01:46:33;;;;;;;5.40;1.83;;;;;;;18.09;87.55;95524.03;5056509;28;20201;-69
2021/08/07 01:49:07;;;;;;;7.50;1.70;;;;;;;18.01;88.82;95526.25;5056594;28;20231;-69
2021/08/07 01:51:40;;;;;;;5.47;1.80;;;;;;;18.10;88.98;95524.81;5057514;28;20200;-69
2021/08/07 01:54:07;;;;;;;7.13;2.10;;;;;;;18.04;88.55;95529.28;5057176;28;20219;-69
2021/08/07 01:56:37;;;;;;;3.15;1.75;;;;;;;18.11;86.90;95515.78;5056196;28;20201;-69
2021/08/07 01:59:07;;;;;;;3.08;1.77;;;;;;;18.17;86.03;95509.50;5056952;28;20724;-69
2021/08/07 02:01:36;;;;;;;6.28;1.63;;;;;;;18.25;87.28;95501.13;5057121;28;20193;-69
2021/08/07 02:04:03;;;;;;;3.67;1.80;;;;;;;18.08;86.42;95498.41;5057003;28;20215;-69
2021/08/07 02:06:31;;;;;;;2.63;1.70;;;;;;;18.18;87.38;95492.50;5056041;28;20196;-69
2021/08/07 02:08:59;;;;;;;4.00;1.50;;;;;;;18.11;88.16;95494.47;5057364;28;20227;-69
2021/08/07 02:11:26;;;;;;;2.60;1.60;;;;;;;18.03;87.88;95500.19;5056763;28;21047;-69
2021/08/07 02:13:55;;;;;;;3.97;1.80;;;;;;;17.89;88.52;95498.88;5056934;28;20204;-69
2021/08/07 02:16:22;;;;;;;2.80;1.77;;;;;;;17.90;89.09;95495.16;5055637;28;20205;-69
2021/08/07 02:18:51;;;;;;;5.43;1.83;;;;;;;17.76;89.78;95499.16;5056970;28;21138;-69
2021/08/07 02:21:19;;;;;;;3.75;1.80;;;;;;;17.68;89.76;95491.56;5056231;28;20212;-69
2021/08/07 02:23:48;;;;;;;3.90;1.77;;;;;;;17.85;89.42;95497.72;5057725;28;20203;-69
2021/08/07 02:26:16;;;;;;;2.97;1.88;;;;;;;17.87;90.83;95485.78;5056449;28;20258;-69
2021/08/07 02:28:43;;;;;;;2.83;1.75;;;;;;;17.84;90.44;95490.78;5053089;28;20232;-69
2021/08/07 02:31:10;;;;;;;5.78;2.03;;;;;;;18.04;88.99;95497.28;5056906;28;20207;-69
2021/08/07 02:33:37;;;;;;;2.70;1.92;;;;;;;18.24;88.61;95497.66;5057126;28;21303;-69
2021/08/07 02:36:06;;;;;;;6.32;1.80;;;;;;;18.45;90.62;95487.06;5056203;28;20212;-69
2021/08/07 02:38:34;;;;;;;3.75;1.70;;;;;;;18.33;87.33;95474.88;5055982;28;20201;-69
2021/08/07 02:41:02;;;;;;;4.80;2.00;;;;;;;18.16;88.02;95467.88;5056823;28;20810;-69
2021/08/07 02:43:30;;;;;;;5.53;2.10;;;;;;;18.05;88.74;95466.91;5056473;28;20221;-69
2021/08/07 02:45:57;;;;;;;3.13;1.80;;;;;;;18.16;88.19;95455.34;5052135;28;20242;-69
2021/08/07 02:48:26;;;;;;;4.20;1.80;;;;;;;18.31;88.04;95470.84;5056259;28;20220;-69
2021/08/07 02:50:53;;;;;;;2.78;1.58;;;;;;;18.27;88.69;95469.72;5056308;28;20216;-69
2021/08/07 02:53:21;;;;;;;4.97;1.70;;;;;;;18.48;89.76;95478.59;5057109;28;20224;-68
2021/08/07 02:55:49;;;;;;;4.63;1.90;;;;;;;18.33;89.87;95474.06;5059740;28;20211;-68
2021/08/07 02:58:16;;;;;;;6.03;2.00;;;;;;;18.50;89.24;95465.78;5060112;28;21048;-68
2021/08/07 03:00:42;;;;;;;3.55;2.00;;;;;;;18.66;88.37;95466.81;5060028;28;20664;-68
2021/08/07 03:03:09;;;;;;;3.97;1.77;;;;;;;18.50;88.89;95476.47;5060416;28;20242;-69
2021/08/07 03:05:35;;;;;;;7.30;2.22;;;;;;;18.57;89.21;95482.47;5059354;28;20295;-69
2021/08/07 03:08:02;;;;;;;4.65;2.10;;;;;;;18.44;88.71;95476.63;5059577;28;20208;-68
2021/08/07 03:10:30;;;;;;;6.00;2.20;;;;;;;18.83;89.07;95475.63;5060339;28;20216;-68
2021/08/07 03:12:57;;;;;;;4.30;2.30;;;;;;;18.63;88.70;95481.47;5060217;28;20220;-68
2021/08/07 03:15:24;;;;;;;6.47;2.05;;;;;;;18.80;90.39;95479.59;5059382;28;20295;-69
2021/08/07 03:17:52;;;;;;;7.50;2.00;;;;;;;18.68;89.76;95475.41;5059447;28;20212;-69
2021/08/07 03:20:18;;;;;;;2.45;1.95;;;;;;;18.63;90.20;95473.47;5060523;28;20204;-69
2021/08/07 03:22:45;;;;;;;9.65;2.15;;;;;;;18.58;89.59;95478.75;5058950;28;20219;-69
2021/08/07 03:25:12;;;;;;;4.90;2.33;;;;;;;18.48;91.08;95483.09;5059541;28;20208;-69
2021/08/07 03:27:40;;;;;;;9.27;2.30;;;;;;;18.81;89.86;95469.72;5057117;28;21157;-69
2021/08/07 03:30:08;;;;;;;2.63;1.98;;;;;;;18.37;90.34;95466.13;5059863;28;20753;-68
2021/08/07 03:32:35;;;;;;;8.32;2.13;;;;;;;18.06;92.85;95465.88;5059053;28;20217;-68
2021/08/07 03:35:01;;;;;;;6.53;2.20;;;;;;;18.24;91.70;95468.34;5060150;28;20215;-69
2021/08/07 03:37:28;;;;;;;4.07;2.08;;;;;;;18.39;91.72;95469.38;5058697;28;20201;-68
2021/08/07 03:39:54;;;;;;;4.43;1.77;;;;;;;18.64;89.21;95484.97;5059430;28;20196;-69
2021/08/07 03:42:21;;;;;;;3.08;2.00;;;;;;;18.80;88.94;95492.13;5060688;28;21310;-69
2021/08/07 03:44:48;;;;;;;3.72;1.75;;;;;;;18.78;89.56;95479.03;5059507;28;20197;-69
2021/08/07 03:47:15;;;;;;;4.40;1.80;;;;;;;18.70;89.74;95475.97;5058311;28;20200;-69
2021/08/07 03:49:42;;;;;;;2.70;1.98;;;;;;;18.64;89.70;95475.09;5058510;28;20315;-69
2021/08/07 03:52:08;;;;;;;7.18;2.35;;;;;;;18.49;91.29;95474.06;5059702;28;20220;-69
2021/08/07 03:54:35;;;;;;;4.53;2.15;;;;;;;18.27;90.26;95467.84;5059093;28;20207;-69
2021/08/07 03:57:02;;;;;;;6.70;2.30;;;;;;;18.01;91.09;95462.28;5057824;28;20200;-69
2021/08/07 03:59:28;;;;;;;4.03;2.22;;;;;;;18.05;91.58;95464.25;5059429;28;20193;-69
2021/08/07 04:01:56;;;;;;;4.05;2.28;;;;;;;18.41;91.98;95466.47;5059054;28;20220;-69
2021/08/07 04:04:23;;;;;;;5.25;2.13;;;;;;;18.31;94.08;95470.84;5058335;28;20215;-69
2021/08/07 04:06:49;;;;;;;3.80;2.20;;;;;;;18.42;91.08;95471.56;5058893;28;20196;-69
2021/08/07 04:09:15;;;;;;;6.30;2.58;;;;;;;18.52;91.86;95465.53;5058518;28;20224;-68
2021/08/07 04:11:42;;;;;;;3.55;2.20;;;;;;;18.45;91.83;95468.38;5058397;28;20726;-69
2021/08/07 04:14:08;;;;;;;5.57;3.10;;;;;;;18.46;90.51;95466.53;5058715;28;20204;-69
2021/08/07 04:16:35;;;;;;;7.68;2.33;;;;;;;18.60;90.08;95468.63;5058360;28;20592;-70
2021/08/07 04:19:03;;;;;;;4.88;2.30;;;;;;;18.65;90.93;95458.03;5058442;28;20201;-69
2021/08/07 04:21:30;;;;;;;7.97;2.67;;;;;;;18.48;89.28;95451.09;5058879;28;20200;-69
2021/08/07 04:23:56;;;;;;;5.10;2.70;;;;;;;18.37;89.57;95460.00;5058855;28;20196;-69
2021/08/07 04:26:23;;;;;;;3.70;2.63;;;;;;;18.37;90.66;95457.34;5057986;28;20216;-69
2021/08/07 04:28:49;;;;;;;6.45;2.92;;;;;;;18.26;90.40;95454.75;5055802;28;20224;-69
2021/08/07 04:31:16;;;;;;;5.32;3.40;;;;;;;18.29;90.43;95451.59;5058545;28;20201;-69
2021/08/07 04:33:42;;;;;;;8.90;2.95;;;;;;;18.31;90.12;95444.16;5058575;28;20220;-69
2021/08/07 04:36:10;;;;;;;6.35;3.20;;;;;;;18.33;90.43;95443.66;5057303;28;20200;-69
2021/08/07 04:38:37;;;;;;;6.10;3.47;;;;;;;18.08;90.99;95441.63;5058368;28;20204;-70
2021/08/07 04:41:03;;;;;;;7.28;2.80;;;;;;;18.17;90.63;95437.50;5058328;28;20951;-69
2021/08/07 04:43:31;;;;;;;9.65;3.40;;;;;;;18.02;91.67;95431.91;5058270;28;20231;-69
2021/08/07 04:45:58;;;;;;;6.15;3.50;;;;;;;18.05;91.61;95428.75;5057198;28;20226;-69
2021/08/07 04:48:24;;;;;;;5.32;3.25;;;;;;;17.98;92.10;95428.13;5059134;28;20209;-69
2021/08/07 04:50:51;;;;;;;6.80;3.35;;;;;;;17.89;92.68;95430.38;5057364;28;20200;-69
2021/08/07 04:53:19;;;;;;;8.38;3.47;;;;;;;18.00;93.20;95420.69;5058187;28;20301;-69
2021/08/07 04:55:45;;;;;;;8.80;4.07;;;;;;;17.83;93.06;95404.69;5058166;28;20247;-69
2021/08/07 04:58:14;;;;;;;7.07;3.38;;;;;;;17.92;92.77;95399.75;5058492;28;20204;-69
2021/08/07 05:00:40;;;;;;;7.15;3.65;;;;;;;18.10;91.45;95399.50;5057595;28;20197;-69
2021/08/07 05:03:07;;;;;;;10.98;3.65;;;;;;;18.27;90.97;95409.16;5058701;28;20225;-70
2021/08/07 05:05:33;;;;;;;6.28;3.20;;;;;;;18.42;91.89;95404.06;5057157;28;20204;-69
2021/08/07 05:08:00;;;;;;;6.15;3.45;;;;;;;18.50;92.21;95407.09;5058169;28;20197;-71
2021/08/07 05:10:28;;;;;;;5.75;3.38;;;;;;;18.63;90.97;95411.28;5057668;28;20225;-71
2021/08/07 05:12:54;;;;;;;9.20;3.35;;;;;;;18.59;90.38;95418.97;5058115;28;20216;-71
2021/08/07 05:15:21;;;;;;;6.97;3.20;;;;;;;18.65;89.35;95426.00;5056242;28;20212;-71
2021/08/07 05:17:47;;;;;;;5.97;3.38;;;;;;;18.79;88.68;95437.13;5057413;28;20212;-71
2021/08/07 05:20:14;;;;;;;6.60;3.40;;;;;;;18.78;89.47;95424.84;5057588;28;20875;-69
2021/08/07 05:22:40;;;;;;;7.60;3.42;;;;;;;18.94;90.00;95419.47;5057594;28;20216;-69
2021/08/07 05:25:10;;;;;;;6.38;3.22;;;;;;;19.21;90.01;95405.13;5057138;28;20215;-69
2021/08/07 05:27:38;;;;;;;7.72;3.05;;;;;;;19.33;89.02;95408.47;5055555;28;20568;-69
2021/08/07 05:30:05;;;;;;;7.13;3.03;;;;;;;19.31;89.11;95407.09;5057212;28;20860;-68
2021/08/07 05:32:31;;;;;;;6.53;3.10;;;;;;;19.31;88.69;95409.78;5057282;28;20220;-69
2021/08/07 05:34:58;;;;;;;8.05;3.20;;;;;;;19.34;88.24;95412.75;5058064;28;20586;-69
2021/08/07 05:37:24;;;;;;;6.20;3.00;;;;;;;19.33;87.68;95407.66;5056695;28;20200;-68
2021/08/07 05:39:51;;;;;;;6.30;3.08;;;;;;;19.40;87.59;95417.13;5057141;28;20201;-69
2021/08/07 05:42:17;;;;;;;6.63;3.08;;;;;;;19.45;86.18;95416.34;5057297;28;20576;-68
2021/08/07 05:44:45;;;;;;;5.18;3.13;;;;;;;19.57;86.40;95415.94;5057319;28;21327;-69
2021/08/07 05:47:11;;;;;;;5.28;3.05;;;;;;;19.47;86.71;95409.69;5056245;28;20215;-69
2021/08/07 05:49:38;;;;;;;4.68;2.60;;;;;;;19.37;86.33;95408.78;5057655;28;20224;-68
2021/08/07 05:52:05;;;;;;;6.65;3.00;;;;;;;19.46;84.76;95412.63;5056420;28;20236;-68
2021/08/07 05:54:31;;;;;;;6.78;3.00;;;;;;;19.37;86.64;95425.59;5057295;28;20230;-69
2021/08/07 05:56:58;;;;;;;7.10;3.28;;;;;;;19.21;87.80;95425.72;5056389;28;20672;-68
2021/08/07 05:59:24;;;;;;;3.70;2.85;;;;;;;19.33;87.07;95415.69;5056869;28;20201;-69
2021/08/07 06:01:52;;;;;;;5.05;3.03;;;;;;;19.63;85.76;95420.28;5056479;28;20227;-70
2021/08/07 06:04:18;;;;;;;6.68;3.50;;;;;;;19.67;84.91;95408.03;5057070;28;20697;-68
2021/08/07 06:06:45;;;;;;;5.15;3.33;;;;;;;19.65;84.14;95410.16;5056293;28;20196;-68
2021/08/07 06:09:11;;;;;;;8.15;3.35;;;;;;;19.83;84.46;95409.81;5056601;28;20224;-68
2021/08/07 06:11:38;;;;;;;6.80;2.90;;;;;;;19.97;83.25;95408.38;5057138;28;20203;-68
2021/08/07 06:14:04;;;;;;;5.28;3.20;;;;;;;20.09;82.42;95400.19;5057365;28;20204;-68
2021/08/07 06:16:31;;;;;;;7.68;3.40;;;;;;;19.82;85.88;95402.06;5055923;28;20219;-67
2021/08/07 06:18:59;;;;;;;6.65;3.75;;;;;;;20.06;83.99;95409.50;5056767;28;20204;-67
2021/08/07 06:21:25;;;;;;;4.47;3.45;;;;;;;20.11;83.95;95409.56;5056188;28;20196;-67
2021/08/07 06:23:53;;;;;;;5.05;3.13;;;;;;;20.33;82.85;95407.59;5056584;28;20196;-67
2021/08/07 06:26:20;;;;;;;7.00;3.22;;;;;;;20.50;81.85;95417.06;5056570;28;20211;-67
2021/08/07 06:28:46;;;;;;;7.13;3.40;;;;;;;20.35;82.55;95410.78;5056311;28;20204;-67
2021/08/07 06:31:13;;;;;;;6.05;3.20;;;;;;;20.44;82.26;95414.63;5061007;28;20228;-68
2021/08/07 06:33:39;;;;;;;6.75;3.20;;;;;;;20.51;81.63;95418.69;5060473;28;20220;-68
2021/08/07 06:36:07;;;;;;;11.85;3.75;;;;;;;20.35;80.73;95418.81;5059649;28;20438;-67
2021/08/07 06:38:34;;;;;;;7.35;3.17;;;;;;;20.60;81.02;95416.34;5060173;28;20212;-68
2021/08/07 06:41:01;;;;;;;6.40;2.72;;;;;;;20.89;81.52;95415.75;5060800;28;20205;-68
2021/08/07 06:43:27;;;;;;;4.35;2.67;;;;;;;21.08;81.24;95412.34;5059586;28;20247;-67
2021/08/07 06:45:54;;;;;;;7.78;3.30;;;;;;;20.95;81.25;95403.97;5059722;28;20215;-68
2021/08/07 06:48:20;;;;;;;7.55;3.08;;;;;;;21.08;80.03;95400.84;5060656;28;20201;-68
2021/08/07 06:50:47;;;;;;;7.97;3.05;;;;;;;21.34;77.44;95402.53;5060262;28;20224;-68
2021/08/07 06:53:15;;;;;;;6.20;2.80;;;;;;;21.39;77.09;95406.03;5059882;28;20505;-67
2021/08/07 06:55:41;;;;;;;4.93;3.08;;;;;;;21.17;77.73;95415.34;5059668;28;20294;-67
2021/08/07 06:58:08;;;;;;;5.22;3.28;;;;;;;21.33;76.98;95423.16;5060461;28;20938;-67
2021/08/07 07:00:36;;;;;;;6.60;3.10;;;;;;;21.44;77.06;95430.19;5060266;28;20201;-67
2021/08/07 07:03:03;;;;;;;5.90;3.30;;;;;;;21.55;77.45;95415.78;5060212;28;21131;-67
2021/08/07 07:05:32;;;;;;;7.97;3.50;;;;;;;21.51;81.29;95403.94;5059255;28;20204;-67
2021/08/07 07:07:58;;;;;;;6.63;2.92;;;;;;;21.84;79.01;95392.78;5059162;28;20201;-67
2021/08/07 07:10:27;;;;;;;7.82;3.20;;;;;;;21.84;77.15;95387.41;5059894;28;20232;-67
2021/08/07 07:12:54;;;;;;;3.97;2.85;;;;;;;22.14;75.01;95396.28;5059742;28;20236;-67
2021/08/07 07:15:20;;;;;;;4.78;3.03;;;;;;;22.04;74.98;95390.91;5058938;28;20242;-68
2021/08/07 07:17:47;;;;;;;6.80;3.10;;;;;;;21.98;79.91;95377.75;5059864;28;20204;-68
2021/08/07 07:20:14;;;;;;;5.38;2.92;;;;;;;21.79;82.80;95358.72;5060003;28;20216;-67
2021/08/07 07:22:40;;;;;;;4.82;2.38;;;;;;;22.23;79.15;95371.31;5059204;28;20801;-68
2021/08/07 07:25:10;;;;;;;4.03;2.42;;;;;;;22.64;76.06;95383.66;5059259;28;20215;-68
2021/08/07 07:27:38;;;;;;;3.92;2.63;;;;;;;22.91;75.34;95389.50;5057052;28;20204;-67
2021/08/07 07:30:06;;;;;;;5.65;2.30;;;;;;;23.17;74.46;95405.31;5059409;28;21043;-67
2021/08/07 07:32:32;;;;;;;4.15;2.33;;;;;;;23.07;73.26;95399.16;5059996;28;20231;-67
2021/08/07 07:35:00;;;;;;;4.50;2.08;;;;;;;23.31;75.29;95412.50;5059263;28;20201;-68
2021/08/07 07:37:27;;;;;;;4.43;2.35;;;;;;;23.40;71.35;95394.72;5059349;28;20197;-67
2021/08/07 07:39:53;;;;;;;6.50;2.72;;;;;;;23.50;73.86;95383.91;5058713;28;20287;-68
2021/08/07 07:42:20;;;;;;;4.97;2.25;;;;;;;23.78;72.50;95377.88;5059802;28;20224;-67
2021/08/07 07:44:48;;;;;;;6.25;2.22;;;;;;;23.68;67.74;95382.47;5058933;28;20207;-68
2021/08/07 07:47:14;;;;;;;5.72;2.20;;;;;;;23.19;68.74;95380.81;5058567;28;20207;-68
2021/08/07 07:49:41;;;;;;;4.60;2.10;;;;;;;23.31;68.67;95369.47;5059724;28;20200;-68
2021/08/07 07:52:07;;;;;;;7.10;2.05;;;;;;;23.24;69.71;95362.00;5059253;28;20225;-68
2021/08/07 07:54:34;;;;;;;6.53;2.40;;;;;;;23.08;70.94;95381.97;5058763;28;20613;-68
2021/08/07 07:57:02;;;;;;;3.88;2.35;;;;;;;23.00;72.77;95372.59;5058823;28;20680;-67
2021/08/07 07:59:28;;;;;;;4.57;2.47;;;;;;;23.08;73.98;95366.63;5058777;28;20208;-68
2021/08/07 08:01:56;;;;;;;6.65;2.53;;;;;;;22.94;75.13;95370.94;5058763;28;20231;-68
2021/08/07 08:04:23;;;;;;;5.13;2.78;;;;;;;22.93;77.69;95372.00;5059062;28;20286;-67
2021/08/07 08:06:49;;;;;;;5.32;3.00;;;;;;;22.92;74.52;95386.53;5058532;28;20223;-68
2021/08/07 08:09:16;;;;;;;12.23;3.10;;;;;;;22.60;77.14;95393.31;5059684;28;20207;-67
2021/08/07 08:11:42;;;;;;;8.13;3.10;;;;;;;22.44;77.06;95394.44;5058518;28;20224;-67
2021/08/07 08:14:08;;;;;;;5.53;3.00;;;;;;;22.67;76.82;95391.19;5059127;28;20215;-67
2021/08/07 08:16:35;;;;;;;5.65;3.00;;;;;;;22.72;78.31;95394.66;5057863;28;20683;-70
2021/08/07 08:19:03;;;;;;;7.68;2.97;;;;;;;22.87;77.23;95393.81;5058673;28;20211;-70
2021/08/07 08:21:31;;;;;;;6.60;3.10;;;;;;;22.78;77.18;95395.44;5058564;28;20204;-70
2021/08/07 08:23:57;;;;;;;8.02;2.83;;;;;;;22.89;76.04;95394.34;5058868;28;20205;-70
2021/08/07 08:26:24;;;;;;;6.22;3.10;;;;;;;23.13;76.60;95400.72;5058015;28;20205;-68
2021/08/07 08:28:50;;;;;;;8.63;2.83;;;;;;;23.23;74.39;95403.38;5056103;28;20207;-68
2021/08/07 08:31:17;;;;;;;5.10;2.53;;;;;;;23.10;76.41;95403.97;5058231;28;20227;-68
2021/08/07 08:33:43;;;;;;;5.57;2.70;;;;;;;23.30;75.70;95395.84;5058530;28;21146;-68
2021/08/07 08:36:11;;;;;;;7.05;2.70;;;;;;;23.34;75.38;95395.00;5057666;28;21134;-70
2021/08/07 08:38:38;;;;;;;5.30;3.00;;;;;;;22.87;78.24;95391.13;5057956;28;20753;-68
2021/08/07 08:41:04;;;;;;;6.97;3.55;;;;;;;23.21;77.71;95376.78;5058228;28;20204;-67
2021/08/07 08:43:32;;;;;;;6.28;3.08;;;;;;;23.03;77.26;95373.91;5058858;28;20220;-67
2021/08/07 08:45:59;;;;;;;11.10;3.00;;;;;;;23.44;77.09;95351.94;5056884;28;20214;-68
2021/08/07 08:48:26;;;;;;;6.75;2.90;;;;;;;23.50;76.34;95340.88;5058466;28;20207;-68
2021/08/07 08:50:53;;;;;;;6.88;3.22;;;;;;;23.46;75.58;95331.75;5056849;28;20227;-68
2021/08/07 08:53:21;;;;;;;7.22;2.83;;;;;;;23.63;76.90;95323.31;5058159;28;20818;-67
2021/08/07 08:55:48;;;;;;;6.35;2.65;;;;;;;23.78;80.20;95332.13;5056995;28;20200;-68
2021/08/07 08:58:15;;;;;;;3.80;2.30;;;;;;;24.10;73.94;95329.72;5057982;28;20401;-70
2021/08/07 09:00:42;;;;;;;3.63;2.38;;;;;;;24.23;77.33;95323.69;5058071;28;20204;-68
2021/08/07 09:03:08;;;;;;;31.73;8.65;;;;;;;24.22;72.64;95332.84;5057855;28;20378;-68
2021/08/07 09:05:35;;;;;;;26.10;7.45;;;;;;;24.39;69.46;95327.84;5057435;28;20204;-68
2021/08/07 09:08:01;;;;;;;5.80;2.70;;;;;;;24.64;65.30;95331.94;5057558;28;20201;-68
2021/08/07 09:10:29;;;;;;;3.50;2.20;;;;;;;24.93;64.70;95321.09;5057822;28;20228;-68
2021/08/07 09:12:58;;;;;;;9.05;3.17;;;;;;;24.75;68.00;95322.63;5057477;28;20692;-68
2021/08/07 09:15:36;;;;;;;5.82;2.40;;;;;;;24.92;64.00;95320.25;5056759;28;20208;-68
2021/08/07 09:18:13;;;;;;;3.58;2.30;;;;;;;24.78;67.63;95326.63;5057684;28;20736;-68
2021/08/07 09:20:41;;;;;;;3.33;2.03;;;;;;;24.91;65.98;95329.47;5057670;28;20203;-68
2021/08/07 09:23:08;;;;;;;4.63;2.30;;;;;;;24.49;66.74;95322.38;5057439;28;20231;-68
2021/08/07 09:25:37;;;;;;;4.57;2.05;;;;;;;24.50;67.71;95332.84;5057413;28;20196;-68
2021/08/07 09:28:05;;;;;;;3.15;2.30;;;;;;;24.54;67.30;95330.41;5053360;28;20688;-68
2021/08/07 09:30:33;;;;;;;8.98;3.00;;;;;;;24.23;69.07;95329.06;5057491;28;20224;-68
2021/08/07 09:33:01;;;;;;;5.97;2.40;;;;;;;24.28;65.70;95329.03;5057082;28;20220;-68
2021/08/07 09:35:29;;;;;;;7.28;2.30;;;;;;;24.43;67.84;95323.53;5056858;28;20196;-68
2021/08/07 09:38:11;;;;;;;12.57;3.03;;;;;;;24.54;65.86;95320.44;5057451;28;20208;-68
2021/08/07 09:40:45;;;;;;;3.88;2.30;;;;;;;24.34;66.52;95317.13;5057665;28;20751;-68
2021/08/07 09:43:13;;;;;;;5.85;2.80;;;;;;;24.48;65.81;95326.97;5057177;28;20228;-68
2021/08/07 09:45:40;;;;;;;3.22;2.20;;;;;;;24.49;65.10;95330.47;5056748;28;20200;-68
2021/08/07 09:48:11;;;;;;;3.90;2.28;;;;;;;24.40;67.72;95338.38;5056488;28;20227;-68
2021/08/07 09:50:38;;;;;;;8.73;2.85;;;;;;;24.39;69.50;95334.06;5057315;28;20227;-68
2021/08/07 09:53:17;;;;;;;6.60;2.97;;;;;;;24.32;70.67;95335.44;5058050;28;20775;-68
2021/08/07 09:56:03;;;;;;;8.27;2.40;;;;;;;24.19;73.69;95339.59;5056388;28;20196;-68
2021/08/07 09:58:29;;;;;;;9.52;2.50;;;;;;;24.40;73.00;95334.84;5056211;28;20200;-68
2021/08/07 10:00:55;;;;;;;6.57;2.90;;;;;;;24.36;72.08;95325.72;5057555;28;20199;-68
2021/08/07 10:03:24;;;;;;;5.45;2.97;;;;;;;24.18;72.83;95326.41;5056602;28;20603;-68
2021/08/07 10:05:51;;;;;;;7.45;3.20;;;;;;;24.31;73.88;95323.06;5055840;28;20204;-68
2021/08/07 10:08:19;;;;;;;6.18;2.70;;;;;;;24.35;76.71;95321.41;5056487;28;20200;-68
2021/08/07 10:10:47;;;;;;;5.28;2.60;;;;;;;24.22;73.39;95322.06;5057496;28;20231;-68
2021/08/07 10:13:16;;;;;;;6.75;2.30;;;;;;;24.43;72.68;95326.22;5056697;28;20224;-68
2021/08/07 10:15:44;;;;;;;5.10;2.38;;;;;;;24.50;72.92;95332.06;5056188;28;20386;-68
2021/08/07 10:18:11;;;;;;;4.80;2.50;;;;;;;24.26;77.17;95328.50;5057129;28;20203;-68
2021/08/07 10:20:39;;;;;;;5.15;2.58;;;;;;;24.24;74.26;95336.06;5056686;28;20197;-70
2021/08/07 10:23:06;;;;;;;7.05;3.03;;;;;;;24.32;71.71;95338.13;5056841;28;20220;-68
2021/08/07 10:25:34;;;;;;;5.60;2.60;;;;;;;24.49;73.00;95336.66;5056088;28;21273;-68
2021/08/07 10:28:03;;;;;;;6.13;2.40;;;;;;;24.48;69.08;95343.13;5054117;28;20212;-68
2021/08/07 10:30:33;;;;;;;4.70;2.58;;;;;;;24.25;70.05;95348.41;5056312;28;20739;-68
2021/08/07 10:33:02;;;;;;;7.90;2.80;;;;;;;24.27;70.64;95347.06;5057064;28;20224;-70
2021/08/07 10:35:30;;;;;;;5.00;2.33;;;;;;;24.17;66.95;95347.16;5056126;28;20196;-68
2021/08/07 10:37:57;;;;;;;4.90;2.42;;;;;;;23.93;66.52;95353.53;5056798;28;20205;-68
2021/08/07 10:40:25;;;;;;;7.53;2.95;;;;;;;23.66;67.83;95341.59;5056493;28;20688;-68
2021/08/07 10:42:54;;;;;;;5.18;2.40;;;;;;;23.98;68.13;95342.72;5056598;28;21271;-69
2021/08/07 10:45:22;;;;;;;6.18;2.75;;;;;;;23.51;71.98;95342.50;5055267;28;20201;-68
2021/08/07 10:47:52;;;;;;;6.68;2.35;;;;;;;23.78;73.78;95342.06;5056684;28;20205;-68
2021/08/07 10:50:34;;;;;;;6.53;2.38;;;;;;;23.91;73.57;95330.69;5056392;28;20203;-68
2021/08/07 10:53:03;;;;;;;3.10;1.98;;;;;;;23.56;68.24;95329.00;5055884;28;20641;-68
2021/08/07 10:55:52;;;;;;;4.55;2.00;;;;;;;23.90;67.70;95329.06;5055394;28;20205;-68
2021/08/07 10:58:40;;;;;;;9.52;2.85;;;;;;;23.87;63.58;95326.94;5051919;28;20200;-68
2021/08/07 11:01:32;;;;;;;6.63;2.13;;;;;;;23.88;63.67;95315.09;5055629;28;20205;-68
2021/08/07 11:04:08;;;;;;;5.97;1.70;;;;;;;23.75;64.89;95316.53;5057278;28;20865;-68
2021/08/07 11:07:08;;;;;;;2.75;1.60;;;;;;;23.50;66.22;95323.94;5055502;28;20201;-68
2021/08/07 11:09:37;;;;;;;3.25;1.95;;;;;;;23.30;67.28;95342.88;5055681;28;20208;-68
2021/08/07 11:12:28;;;;;;;5.30;2.13;;;;;;;23.22;66.87;95342.63;5056534;28;20232;-68
2021/08/07 11:15:04;;;;;;;4.40;1.98;;;;;;;23.45;69.07;95340.91;5058268;28;20201;-68
2021/08/07 11:17:36;;;;;;;6.10;2.10;;;;;;;23.53;70.62;95337.63;5058659;28;20204;-68
2021/08/07 11:20:10;;;;;;;3.92;1.90;;;;;;;23.47;69.86;95335.25;5059178;28;20841;-68
2021/08/07 11:23:14;;;;;;;14.23;3.90;;;;;;;23.42;71.67;95330.72;5058101;28;20228;-68
2021/08/07 11:26:04;;;;;;;3.85;2.00;;;;;;;23.32;72.84;95317.31;5057813;28;20200;-68
2021/08/07 11:28:32;;;;;;;6.15;2.20;;;;;;;23.42;74.33;95319.13;5055965;28;20209;-68
2021/08/07 11:31:22;;;;;;;5.00;2.15;;;;;;;23.02;77.06;95305.13;5058891;28;20224;-68
2021/08/07 11:34:26;;;;;;;3.88;2.03;;;;;;;23.35;74.55;95315.97;5059388;28;20287;-68
2021/08/07 11:37:17;;;;;;;3.85;2.17;;;;;;;23.14;75.45;95313.66;5058056;28;20211;-68
2021/08/07 11:40:07;;;;;;;3.60;2.08;;;;;;;22.99;76.39;95321.81;5058110;28;20291;-68